sensor_id;sensor_type;location;lat;lon;timestamp;P1;durP1;ratioP1;P2;durP2;ratioP2
78209;SDS011;67485;48.816;9.930;2023-05-02T00:00:44;11.03;;;4.10;;
78209;SDS011;67485;48.816;9.930;2023-05-02T00:03:10;5.60;;;3.60;;
78209;SDS011;67485;48.816;9.930;2023-05-02T00:05:36;6.47;;;3.97;;
78209;SDS011;67485;48.816;9.930;2023-05-02T00:08:03;5.05;;;3.60;;
78209;SDS011;67485;48.816;9.930;2023-05-02T00:10:29;6.00;;;3.87;;
78209;SDS011;67485;48.816;9.930;2023-05-02T00:12:55;4.90;;;3.90;;
78209;SDS011;67485;48.816;9.930;2023-05-02T00:15:20;5.07;;;3.67;;
78209;SDS011;67485;48.816;9.930;2023-05-02T00:17:46;5.53;;;3.67;;
78209;SDS011;67485;48.816;9.930;2023-05-02T00:20:12;5.50;;;3.77;;
78209;SDS011;67485;48.816;9.930;2023-05-02T00:22:38;5.10;;;3.73;;
78209;SDS011;67485;48.816;9.930;2023-05-02T00:25:04;5.50;;;4.10;;
78209;SDS011;67485;48.816;9.930;2023-05-02T00:27:30;6.05;;;4.15;;
78209;SDS011;67485;48.816;9.930;2023-05-02T00:29:57;5.50;;;4.15;;
78209;SDS011;67485;48.816;9.930;2023-05-02T00:32:24;6.00;;;3.70;;
78209;SDS011;67485;48.816;9.930;2023-05-02T00:34:51;5.75;;;4.03;;
78209;SDS011;67485;48.816;9.930;2023-05-02T00:37:16;5.93;;;4.00;;
78209;SDS011;67485;48.816;9.930;2023-05-02T00:39:42;4.87;;;3.70;;
78209;SDS011;67485;48.816;9.930;2023-05-02T00:42:09;4.97;;;3.80;;
78209;SDS011;67485;48.816;9.930;2023-05-02T00:44:35;4.25;;;3.25;;
78209;SDS011;67485;48.816;9.930;2023-05-02T00:47:01;4.63;;;2.95;;
78209;SDS011;67485;48.816;9.930;2023-05-02T00:49:27;5.53;;;2.97;;
78209;SDS011;67485;48.816;9.930;2023-05-02T00:51:53;4.47;;;3.10;;
78209;SDS011;67485;48.816;9.930;2023-05-02T00:54:19;4.20;;;3.05;;
78209;SDS011;67485;48.816;9.930;2023-05-02T00:56:45;4.82;;;3.20;;
78209;SDS011;67485;48.816;9.930;2023-05-02T00:59:11;3.80;;;2.83;;
78209;SDS011;67485;48.816;9.930;2023-05-02T01:07:18;4.32;;;3.53;;
78209;SDS011;67485;48.816;9.930;2023-05-02T01:10:00;5.00;;;3.70;;
78209;SDS011;67485;48.816;9.930;2023-05-02T01:12:36;5.22;;;3.65;;
78209;SDS011;67485;48.816;9.930;2023-05-02T01:15:10;5.07;;;3.83;;
78209;SDS011;67485;48.816;9.930;2023-05-02T01:17:40;6.70;;;4.82;;
78209;SDS011;67485;48.816;9.930;2023-05-02T01:20:10;6.57;;;4.63;;
78209;SDS011;67485;48.816;9.930;2023-05-02T01:22:39;7.10;;;4.57;;
78209;SDS011;67485;48.816;9.930;2023-05-02T01:25:14;8.85;;;4.78;;
78209;SDS011;67485;48.816;9.930;2023-05-02T01:30:27;6.10;;;4.07;;
78209;SDS011;67485;48.816;9.930;2023-05-02T01:32:57;6.38;;;4.30;;
78209;SDS011;67485;48.816;9.930;2023-05-02T01:35:24;6.10;;;4.55;;
78209;SDS011;67485;48.816;9.930;2023-05-02T01:37:52;9.43;;;4.55;;
78209;SDS011;67485;48.816;9.930;2023-05-02T01:40:20;5.60;;;4.40;;
78209;SDS011;67485;48.816;9.930;2023-05-02T01:42:47;6.45;;;4.18;;
78209;SDS011;67485;48.816;9.930;2023-05-02T01:45:15;8.07;;;4.50;;
78209;SDS011;67485;48.816;9.930;2023-05-02T01:47:43;5.88;;;4.25;;
78209;SDS011;67485;48.816;9.930;2023-05-02T01:50:10;5.40;;;4.03;;
78209;SDS011;67485;48.816;9.930;2023-05-02T01:52:41;6.30;;;4.07;;
78209;SDS011;67485;48.816;9.930;2023-05-02T01:55:09;8.57;;;4.28;;
78209;SDS011;67485;48.816;9.930;2023-05-02T01:57:39;6.78;;;3.95;;
78209;SDS011;67485;48.816;9.930;2023-05-02T02:00:06;6.30;;;4.20;;
78209;SDS011;67485;48.816;9.930;2023-05-02T02:02:38;5.47;;;3.80;;
78209;SDS011;67485;48.816;9.930;2023-05-02T02:05:06;5.97;;;4.00;;
78209;SDS011;67485;48.816;9.930;2023-05-02T02:07:35;5.45;;;3.92;;
78209;SDS011;67485;48.816;9.930;2023-05-02T02:10:01;6.13;;;4.03;;
78209;SDS011;67485;48.816;9.930;2023-05-02T02:12:28;6.60;;;4.63;;
78209;SDS011;67485;48.816;9.930;2023-05-02T02:15:17;7.07;;;5.00;;
78209;SDS011;67485;48.816;9.930;2023-05-02T02:17:52;7.10;;;4.88;;
78209;SDS011;67485;48.816;9.930;2023-05-02T02:20:23;6.45;;;4.70;;
78209;SDS011;67485;48.816;9.930;2023-05-02T02:22:51;11.52;;;5.35;;
78209;SDS011;67485;48.816;9.930;2023-05-02T02:25:18;10.18;;;5.00;;
78209;SDS011;67485;48.816;9.930;2023-05-02T02:27:46;7.23;;;5.27;;
78209;SDS011;67485;48.816;9.930;2023-05-02T02:30:12;6.80;;;5.13;;
78209;SDS011;67485;48.816;9.930;2023-05-02T02:32:37;6.72;;;4.85;;
78209;SDS011;67485;48.816;9.930;2023-05-02T02:35:03;8.43;;;5.10;;
78209;SDS011;67485;48.816;9.930;2023-05-02T02:37:32;8.23;;;5.43;;
78209;SDS011;67485;48.816;9.930;2023-05-02T02:40:07;6.80;;;4.88;;
78209;SDS011;67485;48.816;9.930;2023-05-02T02:45:20;8.13;;;5.27;;
78209;SDS011;67485;48.816;9.930;2023-05-02T02:47:50;7.13;;;5.25;;
78209;SDS011;67485;48.816;9.930;2023-05-02T02:50:37;8.20;;;5.43;;
78209;SDS011;67485;48.816;9.930;2023-05-02T02:53:26;7.18;;;5.25;;
78209;SDS011;67485;48.816;9.930;2023-05-02T02:56:05;10.25;;;5.50;;
78209;SDS011;67485;48.816;9.930;2023-05-02T02:58:42;8.40;;;5.63;;
78209;SDS011;67485;48.816;9.930;2023-05-02T03:01:17;10.43;;;5.72;;
78209;SDS011;67485;48.816;9.930;2023-05-02T03:03:45;8.68;;;5.75;;
78209;SDS011;67485;48.816;9.930;2023-05-02T03:06:13;8.48;;;5.43;;
78209;SDS011;67485;48.816;9.930;2023-05-02T03:08:41;23.05;;;6.25;;
78209;SDS011;67485;48.816;9.930;2023-05-02T03:11:12;150.40;;;8.37;;
78209;SDS011;67485;48.816;9.930;2023-05-02T03:13:38;82.97;;;7.53;;
78209;SDS011;67485;48.816;9.930;2023-05-02T03:18:49;18.17;;;6.28;;
78209;SDS011;67485;48.816;9.930;2023-05-02T03:21:15;17.37;;;6.43;;
78209;SDS011;67485;48.816;9.930;2023-05-02T03:23:41;9.20;;;6.38;;
78209;SDS011;67485;48.816;9.930;2023-05-02T03:26:08;11.38;;;6.05;;
78209;SDS011;67485;48.816;9.930;2023-05-02T03:28:34;9.50;;;6.07;;
78209;SDS011;67485;48.816;9.930;2023-05-02T03:31:01;9.05;;;5.88;;
78209;SDS011;67485;48.816;9.930;2023-05-02T03:33:28;9.30;;;5.90;;
78209;SDS011;67485;48.816;9.930;2023-05-02T03:35:54;9.65;;;6.50;;
78209;SDS011;67485;48.816;9.930;2023-05-02T03:38:20;9.17;;;6.20;;
78209;SDS011;67485;48.816;9.930;2023-05-02T03:40:48;7.57;;;5.40;;
78209;SDS011;67485;48.816;9.930;2023-05-02T03:43:13;11.60;;;5.90;;
78209;SDS011;67485;48.816;9.930;2023-05-02T03:45:39;7.40;;;5.47;;
78209;SDS011;67485;48.816;9.930;2023-05-02T03:48:05;8.50;;;6.00;;
78209;SDS011;67485;48.816;9.930;2023-05-02T03:50:31;27.33;;;6.67;;
78209;SDS011;67485;48.816;9.930;2023-05-02T03:52:56;12.65;;;6.28;;
78209;SDS011;67485;48.816;9.930;2023-05-02T03:55:32;8.90;;;6.20;;
78209;SDS011;67485;48.816;9.930;2023-05-02T03:57:58;9.83;;;6.77;;
78209;SDS011;67485;48.816;9.930;2023-05-02T04:00:25;10.35;;;7.03;;
78209;SDS011;67485;48.816;9.930;2023-05-02T04:02:57;8.45;;;6.28;;
78209;SDS011;67485;48.816;9.930;2023-05-02T04:05:26;8.63;;;6.13;;
78209;SDS011;67485;48.816;9.930;2023-05-02T04:07:54;9.50;;;6.43;;
78209;SDS011;67485;48.816;9.930;2023-05-02T04:10:20;7.30;;;5.53;;
78209;SDS011;67485;48.816;9.930;2023-05-02T04:12:52;7.93;;;6.07;;
78209;SDS011;67485;48.816;9.930;2023-05-02T04:15:18;8.20;;;6.03;;
78209;SDS011;67485;48.816;9.930;2023-05-02T04:17:46;8.25;;;6.25;;
78209;SDS011;67485;48.816;9.930;2023-05-02T04:20:13;7.68;;;5.90;;
78209;SDS011;67485;48.816;9.930;2023-05-02T04:22:43;8.03;;;6.20;;
78209;SDS011;67485;48.816;9.930;2023-05-02T04:25:10;8.60;;;6.00;;
78209;SDS011;67485;48.816;9.930;2023-05-02T04:27:39;9.43;;;6.30;;
78209;SDS011;67485;48.816;9.930;2023-05-02T04:30:08;8.27;;;5.70;;
78209;SDS011;67485;48.816;9.930;2023-05-02T04:32:35;8.15;;;5.90;;
78209;SDS011;67485;48.816;9.930;2023-05-02T04:35:02;7.07;;;5.30;;
78209;SDS011;67485;48.816;9.930;2023-05-02T04:37:29;9.05;;;6.20;;
78209;SDS011;67485;48.816;9.930;2023-05-02T04:39:55;8.50;;;5.15;;
78209;SDS011;67485;48.816;9.930;2023-05-02T04:42:24;8.13;;;5.78;;
78209;SDS011;67485;48.816;9.930;2023-05-02T04:45:19;8.30;;;5.80;;
78209;SDS011;67485;48.816;9.930;2023-05-02T04:47:45;7.32;;;5.50;;
78209;SDS011;67485;48.816;9.930;2023-05-02T04:50:11;8.63;;;5.63;;
78209;SDS011;67485;48.816;9.930;2023-05-02T04:52:36;9.40;;;5.80;;
78209;SDS011;67485;48.816;9.930;2023-05-02T04:55:03;7.68;;;5.57;;
78209;SDS011;67485;48.816;9.930;2023-05-02T04:57:29;7.10;;;5.53;;
78209;SDS011;67485;48.816;9.930;2023-05-02T04:59:57;7.95;;;5.80;;
78209;SDS011;67485;48.816;9.930;2023-05-02T05:02:24;8.20;;;5.77;;
78209;SDS011;67485;48.816;9.930;2023-05-02T05:04:51;7.38;;;5.35;;
78209;SDS011;67485;48.816;9.930;2023-05-02T05:07:18;11.35;;;6.03;;
78209;SDS011;67485;48.816;9.930;2023-05-02T05:09:46;7.72;;;5.47;;
78209;SDS011;67485;48.816;9.930;2023-05-02T05:12:12;9.75;;;5.70;;
78209;SDS011;67485;48.816;9.930;2023-05-02T05:14:38;8.10;;;5.17;;
78209;SDS011;67485;48.816;9.930;2023-05-02T05:17:04;8.05;;;5.82;;
78209;SDS011;67485;48.816;9.930;2023-05-02T05:19:31;7.93;;;5.72;;
78209;SDS011;67485;48.816;9.930;2023-05-02T05:21:57;6.87;;;5.13;;
78209;SDS011;67485;48.816;9.930;2023-05-02T05:24:22;8.93;;;5.15;;
78209;SDS011;67485;48.816;9.930;2023-05-02T05:26:50;7.70;;;5.63;;
78209;SDS011;67485;48.816;9.930;2023-05-02T05:29:16;8.30;;;5.60;;
78209;SDS011;67485;48.816;9.930;2023-05-02T05:31:43;8.45;;;6.50;;
78209;SDS011;67485;48.816;9.930;2023-05-02T05:34:15;7.43;;;5.65;;
78209;SDS011;67485;48.816;9.930;2023-05-02T05:36:41;7.15;;;5.57;;
78209;SDS011;67485;48.816;9.930;2023-05-02T05:39:07;7.47;;;5.43;;
78209;SDS011;67485;48.816;9.930;2023-05-02T05:41:35;7.55;;;5.13;;
78209;SDS011;67485;48.816;9.930;2023-05-02T05:44:07;6.50;;;4.88;;
78209;SDS011;67485;48.816;9.930;2023-05-02T05:46:32;10.03;;;5.40;;
78209;SDS011;67485;48.816;9.930;2023-05-02T05:48:59;7.57;;;5.13;;
78209;SDS011;67485;48.816;9.930;2023-05-02T05:51:27;7.60;;;5.25;;
78209;SDS011;67485;48.816;9.930;2023-05-02T05:53:54;8.57;;;5.72;;
78209;SDS011;67485;48.816;9.930;2023-05-02T05:56:19;9.10;;;5.67;;
78209;SDS011;67485;48.816;9.930;2023-05-02T05:58:54;6.50;;;5.00;;
78209;SDS011;67485;48.816;9.930;2023-05-02T06:01:20;8.20;;;6.13;;
78209;SDS011;67485;48.816;9.930;2023-05-02T06:03:46;8.05;;;5.38;;
78209;SDS011;67485;48.816;9.930;2023-05-02T06:06:14;9.23;;;5.95;;
78209;SDS011;67485;48.816;9.930;2023-05-02T06:08:40;10.27;;;5.83;;
78209;SDS011;67485;48.816;9.930;2023-05-02T06:11:09;7.57;;;5.57;;
78209;SDS011;67485;48.816;9.930;2023-05-02T06:13:37;6.93;;;5.45;;
78209;SDS011;67485;48.816;9.930;2023-05-02T06:16:04;7.82;;;5.57;;
78209;SDS011;67485;48.816;9.930;2023-05-02T06:18:30;9.63;;;5.47;;
78209;SDS011;67485;48.816;9.930;2023-05-02T06:20:56;7.55;;;5.45;;
78209;SDS011;67485;48.816;9.930;2023-05-02T06:23:22;7.60;;;5.23;;
78209;SDS011;67485;48.816;9.930;2023-05-02T06:25:48;7.50;;;5.53;;
78209;SDS011;67485;48.816;9.930;2023-05-02T06:28:14;10.55;;;5.60;;
78209;SDS011;67485;48.816;9.930;2023-05-02T06:30:40;8.60;;;5.20;;
78209;SDS011;67485;48.816;9.930;2023-05-02T06:33:05;7.15;;;5.40;;
78209;SDS011;67485;48.816;9.930;2023-05-02T06:35:31;8.03;;;5.30;;
78209;SDS011;67485;48.816;9.930;2023-05-02T06:37:57;9.70;;;5.68;;
78209;SDS011;67485;48.816;9.930;2023-05-02T06:40:23;7.90;;;5.50;;
78209;SDS011;67485;48.816;9.930;2023-05-02T06:42:48;7.07;;;5.07;;
78209;SDS011;67485;48.816;9.930;2023-05-02T06:45:14;7.30;;;5.10;;
78209;SDS011;67485;48.816;9.930;2023-05-02T06:47:40;6.78;;;5.50;;
78209;SDS011;67485;48.816;9.930;2023-05-02T06:50:06;7.57;;;5.53;;
78209;SDS011;67485;48.816;9.930;2023-05-02T06:52:32;6.60;;;5.22;;
78209;SDS011;67485;48.816;9.930;2023-05-02T06:54:57;8.07;;;5.13;;
78209;SDS011;67485;48.816;9.930;2023-05-02T06:57:23;7.00;;;4.68;;
78209;SDS011;67485;48.816;9.930;2023-05-02T06:59:49;7.07;;;5.07;;
78209;SDS011;67485;48.816;9.930;2023-05-02T07:02:15;9.00;;;5.30;;
78209;SDS011;67485;48.816;9.930;2023-05-02T07:04:40;7.13;;;5.40;;
78209;SDS011;67485;48.816;9.930;2023-05-02T07:07:06;6.37;;;4.70;;
78209;SDS011;67485;48.816;9.930;2023-05-02T07:09:32;8.67;;;6.03;;
78209;SDS011;67485;48.816;9.930;2023-05-02T07:11:57;6.80;;;5.25;;
78209;SDS011;67485;48.816;9.930;2023-05-02T07:14:23;7.73;;;6.00;;
78209;SDS011;67485;48.816;9.930;2023-05-02T07:16:49;7.57;;;5.38;;
78209;SDS011;67485;48.816;9.930;2023-05-02T07:19:14;7.60;;;5.70;;
78209;SDS011;67485;48.816;9.930;2023-05-02T07:21:40;8.20;;;6.22;;
78209;SDS011;67485;48.816;9.930;2023-05-02T07:24:06;8.33;;;5.83;;
78209;SDS011;67485;48.816;9.930;2023-05-02T07:26:32;10.07;;;5.82;;
78209;SDS011;67485;48.816;9.930;2023-05-02T07:28:57;9.77;;;6.27;;
78209;SDS011;67485;48.816;9.930;2023-05-02T07:31:23;8.30;;;6.30;;
78209;SDS011;67485;48.816;9.930;2023-05-02T07:33:49;8.33;;;5.90;;
78209;SDS011;67485;48.816;9.930;2023-05-02T07:36:14;9.38;;;6.38;;
78209;SDS011;67485;48.816;9.930;2023-05-02T07:38:41;8.60;;;6.63;;
78209;SDS011;67485;48.816;9.930;2023-05-02T07:41:06;8.73;;;6.43;;
78209;SDS011;67485;48.816;9.930;2023-05-02T07:43:32;8.63;;;6.33;;
78209;SDS011;67485;48.816;9.930;2023-05-02T07:46:02;7.75;;;6.15;;
78209;SDS011;67485;48.816;9.930;2023-05-02T07:48:28;9.57;;;6.32;;
78209;SDS011;67485;48.816;9.930;2023-05-02T07:50:54;8.07;;;5.72;;
78209;SDS011;67485;48.816;9.930;2023-05-02T07:53:20;8.40;;;5.80;;
78209;SDS011;67485;48.816;9.930;2023-05-02T07:55:46;7.40;;;5.47;;
78209;SDS011;67485;48.816;9.930;2023-05-02T07:58:12;8.63;;;6.00;;
78209;SDS011;67485;48.816;9.930;2023-05-02T08:00:37;8.15;;;6.13;;
78209;SDS011;67485;48.816;9.930;2023-05-02T08:03:03;9.47;;;6.90;;
78209;SDS011;67485;48.816;9.930;2023-05-02T08:05:28;8.80;;;6.13;;
78209;SDS011;67485;48.816;9.930;2023-05-02T08:07:54;8.17;;;5.97;;
78209;SDS011;67485;48.816;9.930;2023-05-02T08:10:20;7.45;;;5.47;;
78209;SDS011;67485;48.816;9.930;2023-05-02T08:12:47;8.40;;;5.88;;
78209;SDS011;67485;48.816;9.930;2023-05-02T08:15:13;8.10;;;6.20;;
78209;SDS011;67485;48.816;9.930;2023-05-02T08:17:38;9.68;;;5.90;;
78209;SDS011;67485;48.816;9.930;2023-05-02T08:20:04;8.30;;;6.00;;
78209;SDS011;67485;48.816;9.930;2023-05-02T08:22:30;8.63;;;6.18;;
78209;SDS011;67485;48.816;9.930;2023-05-02T08:24:56;8.60;;;5.83;;
78209;SDS011;67485;48.816;9.930;2023-05-02T08:27:22;10.00;;;5.57;;
78209;SDS011;67485;48.816;9.930;2023-05-02T08:29:47;9.17;;;5.97;;
78209;SDS011;67485;48.816;9.930;2023-05-02T08:32:13;10.05;;;6.40;;
78209;SDS011;67485;48.816;9.930;2023-05-02T08:34:39;7.90;;;5.50;;
78209;SDS011;67485;48.816;9.930;2023-05-02T08:37:08;9.02;;;6.00;;
78209;SDS011;67485;48.816;9.930;2023-05-02T08:39:34;8.10;;;6.00;;
78209;SDS011;67485;48.816;9.930;2023-05-02T08:42:00;8.07;;;5.87;;
78209;SDS011;67485;48.816;9.930;2023-05-02T08:44:25;7.70;;;6.00;;
78209;SDS011;67485;48.816;9.930;2023-05-02T08:46:51;9.47;;;6.70;;
78209;SDS011;67485;48.816;9.930;2023-05-02T08:49:19;8.38;;;6.20;;
78209;SDS011;67485;48.816;9.930;2023-05-02T08:51:45;9.02;;;6.20;;
78209;SDS011;67485;48.816;9.930;2023-05-02T08:54:15;7.88;;;6.30;;
78209;SDS011;67485;48.816;9.930;2023-05-02T08:56:42;9.27;;;6.07;;
78209;SDS011;67485;48.816;9.930;2023-05-02T08:59:08;8.63;;;6.18;;
78209;SDS011;67485;48.816;9.930;2023-05-02T09:01:34;8.77;;;5.60;;
78209;SDS011;67485;48.816;9.930;2023-05-02T09:04:01;7.65;;;5.50;;
78209;SDS011;67485;48.816;9.930;2023-05-02T09:06:27;8.43;;;5.78;;
78209;SDS011;67485;48.816;9.930;2023-05-02T09:08:53;8.15;;;6.00;;
78209;SDS011;67485;48.816;9.930;2023-05-02T09:11:19;7.83;;;6.23;;
78209;SDS011;67485;48.816;9.930;2023-05-02T09:13:46;8.52;;;6.18;;
78209;SDS011;67485;48.816;9.930;2023-05-02T09:16:14;8.32;;;5.47;;
78209;SDS011;67485;48.816;9.930;2023-05-02T09:19:02;8.40;;;6.13;;
78209;SDS011;67485;48.816;9.930;2023-05-02T09:21:37;12.30;;;5.93;;
78209;SDS011;67485;48.816;9.930;2023-05-02T09:24:17;7.93;;;5.75;;
78209;SDS011;67485;48.816;9.930;2023-05-02T09:29:44;8.00;;;5.97;;
78209;SDS011;67485;48.816;9.930;2023-05-02T09:32:11;11.70;;;6.35;;
78209;SDS011;67485;48.816;9.930;2023-05-02T09:34:36;9.33;;;5.70;;
78209;SDS011;67485;48.816;9.930;2023-05-02T09:37:03;8.23;;;5.90;;
78209;SDS011;67485;48.816;9.930;2023-05-02T09:39:29;8.05;;;5.55;;
78209;SDS011;67485;48.816;9.930;2023-05-02T09:41:56;7.77;;;5.73;;
78209;SDS011;67485;48.816;9.930;2023-05-02T09:44:23;8.43;;;5.65;;
78209;SDS011;67485;48.816;9.930;2023-05-02T09:46:51;9.25;;;6.22;;
78209;SDS011;67485;48.816;9.930;2023-05-02T09:49:17;10.18;;;6.53;;
78209;SDS011;67485;48.816;9.930;2023-05-02T09:51:44;9.53;;;6.10;;
78209;SDS011;67485;48.816;9.930;2023-05-02T09:54:17;8.50;;;6.35;;
78209;SDS011;67485;48.816;9.930;2023-05-02T09:57:00;8.77;;;6.75;;
78209;SDS011;67485;48.816;9.930;2023-05-02T09:59:26;9.02;;;6.13;;
78209;SDS011;67485;48.816;9.930;2023-05-02T10:01:55;9.20;;;6.27;;
78209;SDS011;67485;48.816;9.930;2023-05-02T10:04:22;8.50;;;6.40;;
78209;SDS011;67485;48.816;9.930;2023-05-02T10:06:50;8.70;;;6.25;;
78209;SDS011;67485;48.816;9.930;2023-05-02T10:09:42;8.13;;;6.30;;
78209;SDS011;67485;48.816;9.930;2023-05-02T10:12:10;9.93;;;6.30;;
78209;SDS011;67485;48.816;9.930;2023-05-02T10:14:39;8.60;;;6.18;;
78209;SDS011;67485;48.816;9.930;2023-05-02T10:19:53;8.57;;;6.10;;
78209;SDS011;67485;48.816;9.930;2023-05-02T10:22:25;9.50;;;5.20;;
78209;SDS011;67485;48.816;9.930;2023-05-02T10:24:52;9.10;;;5.63;;
78209;SDS011;67485;48.816;9.930;2023-05-02T10:27:18;10.38;;;5.78;;
78209;SDS011;67485;48.816;9.930;2023-05-02T10:29:45;8.45;;;5.95;;
78209;SDS011;67485;48.816;9.930;2023-05-02T10:32:12;8.55;;;5.65;;
78209;SDS011;67485;48.816;9.930;2023-05-02T10:34:39;11.23;;;5.38;;
78209;SDS011;67485;48.816;9.930;2023-05-02T10:37:06;8.80;;;5.27;;
78209;SDS011;67485;48.816;9.930;2023-05-02T10:39:32;8.35;;;5.50;;
78209;SDS011;67485;48.816;9.930;2023-05-02T10:41:58;7.18;;;5.45;;
78209;SDS011;67485;48.816;9.930;2023-05-02T10:44:31;9.52;;;5.53;;
78209;SDS011;67485;48.816;9.930;2023-05-02T10:47:00;8.50;;;5.70;;
78209;SDS011;67485;48.816;9.930;2023-05-02T10:49:26;8.50;;;5.57;;
78209;SDS011;67485;48.816;9.930;2023-05-02T10:51:53;7.13;;;5.65;;
78209;SDS011;67485;48.816;9.930;2023-05-02T10:54:20;9.52;;;5.70;;
78209;SDS011;67485;48.816;9.930;2023-05-02T10:59:28;10.60;;;5.93;;
78209;SDS011;67485;48.816;9.930;2023-05-02T11:01:56;7.80;;;5.78;;
78209;SDS011;67485;48.816;9.930;2023-05-02T11:04:22;8.65;;;5.35;;
78209;SDS011;67485;48.816;9.930;2023-05-02T11:11:54;10.03;;;5.67;;
78209;SDS011;67485;48.816;9.930;2023-05-02T11:19:21;8.82;;;5.45;;
78209;SDS011;67485;48.816;9.930;2023-05-02T11:21:47;7.63;;;5.55;;
78209;SDS011;67485;48.816;9.930;2023-05-02T11:29:51;6.20;;;4.30;;
78209;SDS011;67485;48.816;9.930;2023-05-02T11:37:56;6.20;;;4.50;;
78209;SDS011;67485;48.816;9.930;2023-05-02T11:40:24;8.25;;;4.40;;
78209;SDS011;67485;48.816;9.930;2023-05-02T11:42:51;8.80;;;5.00;;
78209;SDS011;67485;48.816;9.930;2023-05-02T11:45:17;7.67;;;5.07;;
78209;SDS011;67485;48.816;9.930;2023-05-02T11:47:45;6.32;;;4.72;;
78209;SDS011;67485;48.816;9.930;2023-05-02T11:50:13;7.53;;;4.63;;
78209;SDS011;67485;48.816;9.930;2023-05-02T11:52:40;6.72;;;4.70;;
78209;SDS011;67485;48.816;9.930;2023-05-02T11:55:11;8.98;;;5.40;;
78209;SDS011;67485;48.816;9.930;2023-05-02T11:57:37;6.60;;;4.90;;
78209;SDS011;67485;48.816;9.930;2023-05-02T12:00:04;8.80;;;5.20;;
78209;SDS011;67485;48.816;9.930;2023-05-02T12:02:44;6.68;;;5.60;;
78209;SDS011;67485;48.816;9.930;2023-05-02T12:05:13;7.45;;;5.38;;
78209;SDS011;67485;48.816;9.930;2023-05-02T12:07:40;8.38;;;4.57;;
78209;SDS011;67485;48.816;9.930;2023-05-02T12:10:09;7.00;;;4.67;;
78209;SDS011;67485;48.816;9.930;2023-05-02T12:12:36;8.25;;;5.10;;
78209;SDS011;67485;48.816;9.930;2023-05-02T12:15:04;9.60;;;5.32;;
78209;SDS011;67485;48.816;9.930;2023-05-02T12:17:30;8.30;;;4.82;;
78209;SDS011;67485;48.816;9.930;2023-05-02T12:19:57;8.38;;;5.20;;
78209;SDS011;67485;48.816;9.930;2023-05-02T12:22:24;8.27;;;5.30;;
78209;SDS011;67485;48.816;9.930;2023-05-02T12:24:50;7.78;;;5.03;;
78209;SDS011;67485;48.816;9.930;2023-05-02T12:27:18;7.68;;;4.80;;
78209;SDS011;67485;48.816;9.930;2023-05-02T12:29:44;6.80;;;4.55;;
78209;SDS011;67485;48.816;9.930;2023-05-02T12:32:12;6.72;;;4.82;;
78209;SDS011;67485;48.816;9.930;2023-05-02T12:34:39;7.07;;;5.00;;
78209;SDS011;67485;48.816;9.930;2023-05-02T12:37:06;8.73;;;5.22;;
78209;SDS011;67485;48.816;9.930;2023-05-02T12:39:36;10.65;;;5.70;;
78209;SDS011;67485;48.816;9.930;2023-05-02T12:42:09;7.75;;;5.43;;
78209;SDS011;67485;48.816;9.930;2023-05-02T12:44:39;8.65;;;5.07;;
78209;SDS011;67485;48.816;9.930;2023-05-02T12:47:07;9.33;;;5.07;;
78209;SDS011;67485;48.816;9.930;2023-05-02T12:49:53;8.88;;;5.30;;
78209;SDS011;67485;48.816;9.930;2023-05-02T12:55:19;5.93;;;4.35;;
78209;SDS011;67485;48.816;9.930;2023-05-02T12:57:47;5.97;;;4.60;;
78209;SDS011;67485;48.816;9.930;2023-05-02T13:00:15;6.67;;;4.90;;
78209;SDS011;67485;48.816;9.930;2023-05-02T13:02:41;9.98;;;5.85;;
78209;SDS011;67485;48.816;9.930;2023-05-02T13:05:14;9.20;;;5.63;;
78209;SDS011;67485;48.816;9.930;2023-05-02T13:07:43;12.05;;;6.53;;
78209;SDS011;67485;48.816;9.930;2023-05-02T13:10:09;8.40;;;6.30;;
78209;SDS011;67485;48.816;9.930;2023-05-02T13:12:36;8.35;;;6.13;;
78209;SDS011;67485;48.816;9.930;2023-05-02T13:15:03;10.40;;;5.60;;
78209;SDS011;67485;48.816;9.930;2023-05-02T13:17:29;7.93;;;5.80;;
78209;SDS011;67485;48.816;9.930;2023-05-02T13:19:55;10.48;;;6.30;;
78209;SDS011;67485;48.816;9.930;2023-05-02T13:22:21;9.10;;;6.50;;
78209;SDS011;67485;48.816;9.930;2023-05-02T13:24:47;8.83;;;6.63;;
78209;SDS011;67485;48.816;9.930;2023-05-02T13:27:13;8.57;;;6.18;;
78209;SDS011;67485;48.816;9.930;2023-05-02T13:29:39;9.15;;;6.03;;
78209;SDS011;67485;48.816;9.930;2023-05-02T13:32:05;7.40;;;5.17;;
78209;SDS011;67485;48.816;9.930;2023-05-02T13:34:30;7.85;;;5.43;;
78209;SDS011;67485;48.816;9.930;2023-05-02T13:36:56;7.40;;;5.60;;
78209;SDS011;67485;48.816;9.930;2023-05-02T13:39:22;8.75;;;6.15;;
78209;SDS011;67485;48.816;9.930;2023-05-02T13:41:47;9.07;;;6.60;;
78209;SDS011;67485;48.816;9.930;2023-05-02T13:44:13;8.95;;;6.63;;
78209;SDS011;67485;48.816;9.930;2023-05-02T13:46:39;8.60;;;7.00;;
78209;SDS011;67485;48.816;9.930;2023-05-02T13:49:05;9.55;;;7.07;;
78209;SDS011;67485;48.816;9.930;2023-05-02T13:51:30;9.07;;;7.20;;
78209;SDS011;67485;48.816;9.930;2023-05-02T13:53:57;10.10;;;7.93;;
78209;SDS011;67485;48.816;9.930;2023-05-02T13:56:23;9.95;;;7.05;;
78209;SDS011;67485;48.816;9.930;2023-05-02T13:58:49;11.05;;;7.55;;
78209;SDS011;67485;48.816;9.930;2023-05-02T14:01:14;9.53;;;7.13;;
78209;SDS011;67485;48.816;9.930;2023-05-02T14:03:40;8.80;;;6.90;;
78209;SDS011;67485;48.816;9.930;2023-05-02T14:06:06;8.93;;;7.00;;
78209;SDS011;67485;48.816;9.930;2023-05-02T14:08:32;9.30;;;7.60;;
78209;SDS011;67485;48.816;9.930;2023-05-02T14:10:58;7.95;;;6.07;;
78209;SDS011;67485;48.816;9.930;2023-05-02T14:13:23;7.73;;;6.10;;
78209;SDS011;67485;48.816;9.930;2023-05-02T14:15:49;8.02;;;6.03;;
78209;SDS011;67485;48.816;9.930;2023-05-02T14:18:15;6.97;;;5.53;;
78209;SDS011;67485;48.816;9.930;2023-05-02T14:20:41;8.25;;;4.90;;
78209;SDS011;67485;48.816;9.930;2023-05-02T14:23:07;8.80;;;5.22;;
78209;SDS011;67485;48.816;9.930;2023-05-02T14:25:33;6.23;;;5.03;;
78209;SDS011;67485;48.816;9.930;2023-05-02T14:27:59;6.60;;;5.35;;
78209;SDS011;67485;48.816;9.930;2023-05-02T14:30:25;6.07;;;4.90;;
78209;SDS011;67485;48.816;9.930;2023-05-02T14:32:51;8.52;;;4.80;;
78209;SDS011;67485;48.816;9.930;2023-05-02T14:35:17;7.27;;;5.17;;
78209;SDS011;67485;48.816;9.930;2023-05-02T14:37:43;6.85;;;4.47;;
78209;SDS011;67485;48.816;9.930;2023-05-02T14:40:10;8.57;;;5.00;;
78209;SDS011;67485;48.816;9.930;2023-05-02T14:42:36;6.38;;;4.90;;
78209;SDS011;67485;48.816;9.930;2023-05-02T14:45:02;5.60;;;4.43;;
78209;SDS011;67485;48.816;9.930;2023-05-02T14:47:29;6.72;;;4.85;;
78209;SDS011;67485;48.816;9.930;2023-05-02T14:49:55;6.50;;;4.90;;
78209;SDS011;67485;48.816;9.930;2023-05-02T14:52:21;6.78;;;4.93;;
78209;SDS011;67485;48.816;9.930;2023-05-02T14:54:46;5.10;;;4.10;;
78209;SDS011;67485;48.816;9.930;2023-05-02T14:57:12;4.88;;;4.20;;
78209;SDS011;67485;48.816;9.930;2023-05-02T14:59:38;5.10;;;3.77;;
78209;SDS011;67485;48.816;9.930;2023-05-02T15:02:04;7.15;;;3.95;;
78209;SDS011;67485;48.816;9.930;2023-05-02T15:04:30;4.47;;;3.35;;
78209;SDS011;67485;48.816;9.930;2023-05-02T15:06:56;4.78;;;3.10;;
78209;SDS011;67485;48.816;9.930;2023-05-02T15:09:22;3.83;;;3.27;;
78209;SDS011;67485;48.816;9.930;2023-05-02T15:11:51;4.53;;;3.25;;
78209;SDS011;67485;48.816;9.930;2023-05-02T15:14:17;4.18;;;2.63;;
78209;SDS011;67485;48.816;9.930;2023-05-02T15:16:43;4.10;;;3.00;;
78209;SDS011;67485;48.816;9.930;2023-05-02T15:19:08;7.00;;;3.15;;
78209;SDS011;67485;48.816;9.930;2023-05-02T15:21:35;4.25;;;3.13;;
78209;SDS011;67485;48.816;9.930;2023-05-02T15:24:01;6.38;;;3.33;;
78209;SDS011;67485;48.816;9.930;2023-05-02T15:26:28;5.57;;;2.83;;
78209;SDS011;67485;48.816;9.930;2023-05-02T15:28:54;5.32;;;3.03;;
78209;SDS011;67485;48.816;9.930;2023-05-02T15:31:20;9.05;;;3.38;;
78209;SDS011;67485;48.816;9.930;2023-05-02T15:33:46;11.10;;;3.00;;